sensor_id;sensor_type;location;lat;lon;timestamp;temperature;humidity
60313;DHT22;46158;52.850;6.970;2023-02-18T00:01:09;14.60;78.90
60313;DHT22;46158;52.850;6.970;2023-02-18T00:03:35;14.60;78.90
60313;DHT22;46158;52.850;6.970;2023-02-18T00:06:09;14.60;78.90
60313;DHT22;46158;52.850;6.970;2023-02-18T00:08:34;14.60;78.80
60313;DHT22;46158;52.850;6.970;2023-02-18T00:11:00;14.60;78.80
60313;DHT22;46158;52.850;6.970;2023-02-18T00:13:25;14.60;78.70
60313;DHT22;46158;52.850;6.970;2023-02-18T00:15:51;14.60;78.70
60313;DHT22;46158;52.850;6.970;2023-02-18T00:18:19;14.60;78.60
60313;DHT22;46158;52.850;6.970;2023-02-18T00:20:44;14.50;78.60
60313;DHT22;46158;52.850;6.970;2023-02-18T00:23:10;14.50;78.60
60313;DHT22;46158;52.850;6.970;2023-02-18T00:25:36;14.50;78.50
60313;DHT22;46158;52.850;6.970;2023-02-18T00:28:01;14.50;78.50
60313;DHT22;46158;52.850;6.970;2023-02-18T00:30:27;14.50;78.50
60313;DHT22;46158;52.850;6.970;2023-02-18T00:32:52;14.50;78.40
60313;DHT22;46158;52.850;6.970;2023-02-18T00:35:18;14.50;78.30
60313;DHT22;46158;52.850;6.970;2023-02-18T00:37:44;14.50;78.30
60313;DHT22;46158;52.850;6.970;2023-02-18T00:40:09;14.50;78.30
60313;DHT22;46158;52.850;6.970;2023-02-18T00:42:35;14.50;78.90
60313;DHT22;46158;52.850;6.970;2023-02-18T00:45:00;14.40;78.20
60313;DHT22;46158;52.850;6.970;2023-02-18T00:47:26;14.40;78.10
60313;DHT22;46158;52.850;6.970;2023-02-18T00:49:51;14.40;78.10
60313;DHT22;46158;52.850;6.970;2023-02-18T00:52:17;14.40;78.10
60313;DHT22;46158;52.850;6.970;2023-02-18T00:54:42;14.40;78.10
60313;DHT22;46158;52.850;6.970;2023-02-18T00:57:08;14.40;78.00
60313;DHT22;46158;52.850;6.970;2023-02-18T00:59:33;14.40;78.00
60313;DHT22;46158;52.850;6.970;2023-02-18T01:01:59;14.40;78.00
60313;DHT22;46158;52.850;6.970;2023-02-18T01:04:25;14.40;78.00
60313;DHT22;46158;52.850;6.970;2023-02-18T01:06:50;14.40;77.90
60313;DHT22;46158;52.850;6.970;2023-02-18T01:09:16;14.30;77.90
60313;DHT22;46158;52.850;6.970;2023-02-18T01:11:42;14.30;77.80
60313;DHT22;46158;52.850;6.970;2023-02-18T01:14:07;14.30;77.80
60313;DHT22;46158;52.850;6.970;2023-02-18T01:16:33;14.30;77.80
60313;DHT22;46158;52.850;6.970;2023-02-18T01:18:59;14.30;77.70
60313;DHT22;46158;52.850;6.970;2023-02-18T01:21:25;14.30;77.70
60313;DHT22;46158;52.850;6.970;2023-02-18T01:23:51;14.30;77.70
60313;DHT22;46158;52.850;6.970;2023-02-18T01:26:16;14.30;77.70
60313;DHT22;46158;52.850;6.970;2023-02-18T01:28:52;14.30;77.70
60313;DHT22;46158;52.850;6.970;2023-02-18T01:31:20;14.30;77.70
60313;DHT22;46158;52.850;6.970;2023-02-18T01:33:47;14.20;77.60
60313;DHT22;46158;52.850;6.970;2023-02-18T01:36:21;14.20;77.60
60313;DHT22;46158;52.850;6.970;2023-02-18T01:38:47;14.20;77.60
60313;DHT22;46158;52.850;6.970;2023-02-18T01:41:12;14.20;77.60
60313;DHT22;46158;52.850;6.970;2023-02-18T01:43:38;14.20;77.50
60313;DHT22;46158;52.850;6.970;2023-02-18T01:51:00;14.20;77.50
60313;DHT22;46158;52.850;6.970;2023-02-18T01:53:59;14.20;77.50
60313;DHT22;46158;52.850;6.970;2023-02-18T01:56:22;14.20;77.40
60313;DHT22;46158;52.850;6.970;2023-02-18T01:58:48;14.20;77.40
60313;DHT22;46158;52.850;6.970;2023-02-18T02:01:14;14.10;77.30
60313;DHT22;46158;52.850;6.970;2023-02-18T02:03:40;14.20;77.40
60313;DHT22;46158;52.850;6.970;2023-02-18T02:06:08;14.10;77.30
60313;DHT22;46158;52.850;6.970;2023-02-18T02:08:36;14.10;77.20
60313;DHT22;46158;52.850;6.970;2023-02-18T02:11:22;14.10;77.20
60313;DHT22;46158;52.850;6.970;2023-02-18T02:13:56;14.10;77.20
60313;DHT22;46158;52.850;6.970;2023-02-18T02:16:40;14.10;77.20
60313;DHT22;46158;52.850;6.970;2023-02-18T02:19:22;14.10;77.20
60313;DHT22;46158;52.850;6.970;2023-02-18T02:27:20;14.10;77.10
60313;DHT22;46158;52.850;6.970;2023-02-18T02:32:44;14.00;76.90
60313;DHT22;46158;52.850;6.970;2023-02-18T02:45:33;14.00;76.80
60313;DHT22;46158;52.850;6.970;2023-02-18T02:48:09;13.90;76.70
60313;DHT22;46158;52.850;6.970;2023-02-18T02:50:43;13.90;76.70
60313;DHT22;46158;52.850;6.970;2023-02-18T02:53:13;14.00;76.70
60313;DHT22;46158;52.850;6.970;2023-02-18T02:55:41;13.90;76.70
60313;DHT22;46158;52.850;6.970;2023-02-18T02:58:08;14.00;76.70
60313;DHT22;46158;52.850;6.970;2023-02-18T03:08:17;13.90;76.60
60313;DHT22;46158;52.850;6.970;2023-02-18T03:20:55;13.90;76.50
60313;DHT22;46158;52.850;6.970;2023-02-18T03:23:29;13.80;76.40
60313;DHT22;46158;52.850;6.970;2023-02-18T03:25:57;13.90;76.40
60313;DHT22;46158;52.850;6.970;2023-02-18T03:28:23;13.80;76.30
60313;DHT22;46158;52.850;6.970;2023-02-18T03:30:52;13.80;76.30
60313;DHT22;46158;52.850;6.970;2023-02-18T03:33:25;13.80;77.00
60313;DHT22;46158;52.850;6.970;2023-02-18T03:35:53;13.80;76.30
60313;DHT22;46158;52.850;6.970;2023-02-18T03:38:21;13.80;76.30
60313;DHT22;46158;52.850;6.970;2023-02-18T03:40:48;13.80;76.30
60313;DHT22;46158;52.850;6.970;2023-02-18T03:43:14;13.80;76.30
60313;DHT22;46158;52.850;6.970;2023-02-18T03:45:39;13.80;76.20
60313;DHT22;46158;52.850;6.970;2023-02-18T03:48:05;13.80;76.20
60313;DHT22;46158;52.850;6.970;2023-02-18T03:50:31;13.80;76.20
60313;DHT22;46158;52.850;6.970;2023-02-18T03:52:56;13.80;76.20
60313;DHT22;46158;52.850;6.970;2023-02-18T03:55:22;13.70;76.10
60313;DHT22;46158;52.850;6.970;2023-02-18T03:57:48;13.70;76.10
60313;DHT22;46158;52.850;6.970;2023-02-18T04:00:13;13.70;76.10
60313;DHT22;46158;52.850;6.970;2023-02-18T04:02:39;13.70;76.10
60313;DHT22;46158;52.850;6.970;2023-02-18T04:05:05;13.70;76.10
60313;DHT22;46158;52.850;6.970;2023-02-18T04:07:31;13.70;76.00
60313;DHT22;46158;52.850;6.970;2023-02-18T04:09:57;13.70;76.00
60313;DHT22;46158;52.850;6.970;2023-02-18T04:12:22;13.70;76.00
60313;DHT22;46158;52.850;6.970;2023-02-18T04:14:48;13.70;76.00
60313;DHT22;46158;52.850;6.970;2023-02-18T04:17:13;13.70;76.00
60313;DHT22;46158;52.850;6.970;2023-02-18T04:19:39;13.70;75.90
60313;DHT22;46158;52.850;6.970;2023-02-18T04:22:04;13.70;75.90
60313;DHT22;46158;52.850;6.970;2023-02-18T04:24:30;13.70;75.90
60313;DHT22;46158;52.850;6.970;2023-02-18T04:26:55;13.70;75.90
60313;DHT22;46158;52.850;6.970;2023-02-18T04:29:21;13.70;75.90
60313;DHT22;46158;52.850;6.970;2023-02-18T04:31:46;13.60;75.80
60313;DHT22;46158;52.850;6.970;2023-02-18T04:34:12;13.70;75.90
60313;DHT22;46158;52.850;6.970;2023-02-18T04:36:38;13.70;75.90
60313;DHT22;46158;52.850;6.970;2023-02-18T04:39:03;13.60;75.80
60313;DHT22;46158;52.850;6.970;2023-02-18T04:41:29;13.60;75.80
60313;DHT22;46158;52.850;6.970;2023-02-18T04:43:54;13.60;75.80
60313;DHT22;46158;52.850;6.970;2023-02-18T04:46:20;13.60;75.80
60313;DHT22;46158;52.850;6.970;2023-02-18T04:48:45;13.60;75.70
60313;DHT22;46158;52.850;6.970;2023-02-18T04:51:11;13.60;75.70
60313;DHT22;46158;52.850;6.970;2023-02-18T04:53:36;13.60;75.70
60313;DHT22;46158;52.850;6.970;2023-02-18T04:56:02;13.60;75.70
60313;DHT22;46158;52.850;6.970;2023-02-18T04:58:28;13.60;75.70
60313;DHT22;46158;52.850;6.970;2023-02-18T05:00:57;13.60;75.70
60313;DHT22;46158;52.850;6.970;2023-02-18T05:03:23;13.60;75.70
60313;DHT22;46158;52.850;6.970;2023-02-18T05:05:48;13.60;75.70
60313;DHT22;46158;52.850;6.970;2023-02-18T05:08:14;13.50;75.60
60313;DHT22;46158;52.850;6.970;2023-02-18T05:10:40;13.60;75.70
60313;DHT22;46158;52.850;6.970;2023-02-18T05:13:06;13.50;75.50
60313;DHT22;46158;52.850;6.970;2023-02-18T05:15:31;13.50;75.60
60313;DHT22;46158;52.850;6.970;2023-02-18T05:17:57;13.50;75.50
60313;DHT22;46158;52.850;6.970;2023-02-18T05:20:22;13.60;75.60
60313;DHT22;46158;52.850;6.970;2023-02-18T05:22:48;13.50;75.50
60313;DHT22;46158;52.850;6.970;2023-02-18T05:25:14;13.50;75.50
60313;DHT22;46158;52.850;6.970;2023-02-18T05:27:39;13.50;75.50
60313;DHT22;46158;52.850;6.970;2023-02-18T05:30:05;13.50;75.50
60313;DHT22;46158;52.850;6.970;2023-02-18T05:32:31;13.50;75.50
60313;DHT22;46158;52.850;6.970;2023-02-18T05:34:56;13.50;75.50
60313;DHT22;46158;52.850;6.970;2023-02-18T05:37:22;13.50;75.50
60313;DHT22;46158;52.850;6.970;2023-02-18T05:39:47;13.50;75.50
60313;DHT22;46158;52.850;6.970;2023-02-18T05:42:13;13.50;75.60
60313;DHT22;46158;52.850;6.970;2023-02-18T05:44:39;13.40;75.80
60313;DHT22;46158;52.850;6.970;2023-02-18T05:47:05;13.40;75.90
60313;DHT22;46158;52.850;6.970;2023-02-18T05:49:31;13.40;75.90
60313;DHT22;46158;52.850;6.970;2023-02-18T05:51:58;13.40;75.90
60313;DHT22;46158;52.850;6.970;2023-02-18T05:54:27;13.40;76.70
60313;DHT22;46158;52.850;6.970;2023-02-18T05:56:53;13.40;75.90
60313;DHT22;46158;52.850;6.970;2023-02-18T05:59:19;13.40;75.90
60313;DHT22;46158;52.850;6.970;2023-02-18T06:01:44;13.40;75.90
60313;DHT22;46158;52.850;6.970;2023-02-18T06:04:11;13.40;76.00
60313;DHT22;46158;52.850;6.970;2023-02-18T06:06:37;13.40;76.00
60313;DHT22;46158;52.850;6.970;2023-02-18T06:09:03;13.40;76.00
60313;DHT22;46158;52.850;6.970;2023-02-18T06:11:29;13.40;76.10
60313;DHT22;46158;52.850;6.970;2023-02-18T06:13:54;13.40;76.10
60313;DHT22;46158;52.850;6.970;2023-02-18T06:16:20;13.40;76.20
60313;DHT22;46158;52.850;6.970;2023-02-18T06:18:45;13.40;76.20
60313;DHT22;46158;52.850;6.970;2023-02-18T06:21:11;13.40;76.20
60313;DHT22;46158;52.850;6.970;2023-02-18T06:23:36;13.50;76.40
60313;DHT22;46158;52.850;6.970;2023-02-18T06:26:02;13.50;76.40
60313;DHT22;46158;52.850;6.970;2023-02-18T06:28:27;13.50;76.40
60313;DHT22;46158;52.850;6.970;2023-02-18T06:30:53;13.50;76.40
60313;DHT22;46158;52.850;6.970;2023-02-18T06:33:18;13.50;76.50
60313;DHT22;46158;52.850;6.970;2023-02-18T06:35:57;13.50;76.50
60313;DHT22;46158;52.850;6.970;2023-02-18T06:38:23;13.40;76.50
60313;DHT22;46158;52.850;6.970;2023-02-18T06:40:49;13.50;76.60
60313;DHT22;46158;52.850;6.970;2023-02-18T06:43:14;13.50;76.60
60313;DHT22;46158;52.850;6.970;2023-02-18T06:45:40;13.50;76.60
60313;DHT22;46158;52.850;6.970;2023-02-18T06:48:05;13.50;76.60
60313;DHT22;46158;52.850;6.970;2023-02-18T06:50:31;13.50;76.70
60313;DHT22;46158;52.850;6.970;2023-02-18T06:52:57;13.50;76.80
60313;DHT22;46158;52.850;6.970;2023-02-18T06:55:24;13.50;76.80
60313;DHT22;46158;52.850;6.970;2023-02-18T06:57:49;13.50;76.80
60313;DHT22;46158;52.850;6.970;2023-02-18T07:00:15;13.50;76.80
60313;DHT22;46158;52.850;6.970;2023-02-18T07:02:41;13.50;76.90
60313;DHT22;46158;52.850;6.970;2023-02-18T07:05:06;13.50;76.90
60313;DHT22;46158;52.850;6.970;2023-02-18T07:07:32;13.50;76.90
60313;DHT22;46158;52.850;6.970;2023-02-18T07:09:58;13.50;76.90
60313;DHT22;46158;52.850;6.970;2023-02-18T07:12:23;13.50;77.00
60313;DHT22;46158;52.850;6.970;2023-02-18T07:14:49;13.60;77.10
60313;DHT22;46158;52.850;6.970;2023-02-18T07:17:15;13.60;77.10
60313;DHT22;46158;52.850;6.970;2023-02-18T07:19:41;13.60;77.20
60313;DHT22;46158;52.850;6.970;2023-02-18T07:22:08;13.60;77.10
60313;DHT22;46158;52.850;6.970;2023-02-18T07:24:33;13.60;77.20
60313;DHT22;46158;52.850;6.970;2023-02-18T07:26:59;13.60;77.20
60313;DHT22;46158;52.850;6.970;2023-02-18T07:29:25;13.60;77.30
60313;DHT22;46158;52.850;6.970;2023-02-18T07:31:50;13.60;77.30
60313;DHT22;46158;52.850;6.970;2023-02-18T07:34:16;13.60;77.30
60313;DHT22;46158;52.850;6.970;2023-02-18T07:36:41;13.60;77.30
60313;DHT22;46158;52.850;6.970;2023-02-18T07:39:07;13.60;77.30
60313;DHT22;46158;52.850;6.970;2023-02-18T07:41:33;13.60;77.30
60313;DHT22;46158;52.850;6.970;2023-02-18T07:43:58;13.60;77.40
60313;DHT22;46158;52.850;6.970;2023-02-18T07:46:24;13.60;77.40
60313;DHT22;46158;52.850;6.970;2023-02-18T07:48:49;13.60;77.50
60313;DHT22;46158;52.850;6.970;2023-02-18T07:51:15;13.60;77.60
60313;DHT22;46158;52.850;6.970;2023-02-18T07:53:41;13.70;77.60
60313;DHT22;46158;52.850;6.970;2023-02-18T07:56:06;13.70;77.60
60313;DHT22;46158;52.850;6.970;2023-02-18T07:58:33;13.70;77.70
60313;DHT22;46158;52.850;6.970;2023-02-18T08:00:59;13.70;77.70
60313;DHT22;46158;52.850;6.970;2023-02-18T08:03:26;13.70;77.70
60313;DHT22;46158;52.850;6.970;2023-02-18T08:05:54;13.70;77.80
60313;DHT22;46158;52.850;6.970;2023-02-18T08:08:22;13.70;77.70
60313;DHT22;46158;52.850;6.970;2023-02-18T08:10:48;13.70;77.80
60313;DHT22;46158;52.850;6.970;2023-02-18T08:13:14;13.70;77.80
60313;DHT22;46158;52.850;6.970;2023-02-18T08:15:40;13.70;77.90
60313;DHT22;46158;52.850;6.970;2023-02-18T08:18:06;13.70;77.90
60313;DHT22;46158;52.850;6.970;2023-02-18T08:20:36;13.70;77.90
60313;DHT22;46158;52.850;6.970;2023-02-18T08:23:02;13.80;78.00
60313;DHT22;46158;52.850;6.970;2023-02-18T08:25:28;13.70;77.90
60313;DHT22;46158;52.850;6.970;2023-02-18T08:27:53;13.70;78.00
60313;DHT22;46158;52.850;6.970;2023-02-18T08:30:19;13.80;78.10
60313;DHT22;46158;52.850;6.970;2023-02-18T08:32:45;13.70;78.10
60313;DHT22;46158;52.850;6.970;2023-02-18T08:35:11;13.70;78.10
60313;DHT22;46158;52.850;6.970;2023-02-18T08:37:38;13.70;78.10
60313;DHT22;46158;52.850;6.970;2023-02-18T08:40:04;13.70;78.20
60313;DHT22;46158;52.850;6.970;2023-02-18T08:42:29;13.80;78.30
60313;DHT22;46158;52.850;6.970;2023-02-18T08:44:55;13.80;78.30
60313;DHT22;46158;52.850;6.970;2023-02-18T08:47:20;13.80;78.30
60313;DHT22;46158;52.850;6.970;2023-02-18T08:49:52;13.80;78.30
60313;DHT22;46158;52.850;6.970;2023-02-18T08:52:18;13.80;78.30
60313;DHT22;46158;52.850;6.970;2023-02-18T08:54:44;13.80;79.00
60313;DHT22;46158;52.850;6.970;2023-02-18T08:57:09;13.80;78.20
60313;DHT22;46158;52.850;6.970;2023-02-18T08:59:35;13.80;78.40
60313;DHT22;46158;52.850;6.970;2023-02-18T09:02:01;13.80;78.50
60313;DHT22;46158;52.850;6.970;2023-02-18T09:04:26;13.80;78.50
60313;DHT22;46158;52.850;6.970;2023-02-18T09:06:52;13.80;78.60
60313;DHT22;46158;52.850;6.970;2023-02-18T09:09:18;13.90;78.70
60313;DHT22;46158;52.850;6.970;2023-02-18T09:11:44;13.90;78.80
60313;DHT22;46158;52.850;6.970;2023-02-18T09:14:09;13.80;78.80
60313;DHT22;46158;52.850;6.970;2023-02-18T09:16:35;13.90;78.90
60313;DHT22;46158;52.850;6.970;2023-02-18T09:19:03;13.90;79.00
60313;DHT22;46158;52.850;6.970;2023-02-18T09:21:30;13.90;79.10
60313;DHT22;46158;52.850;6.970;2023-02-18T09:23:58;13.90;79.10
60313;DHT22;46158;52.850;6.970;2023-02-18T09:26:24;13.90;79.10
60313;DHT22;46158;52.850;6.970;2023-02-18T09:28:52;13.90;79.10
60313;DHT22;46158;52.850;6.970;2023-02-18T09:31:19;13.90;79.10
60313;DHT22;46158;52.850;6.970;2023-02-18T09:33:56;14.00;79.10
60313;DHT22;46158;52.850;6.970;2023-02-18T09:36:21;14.00;79.20
60313;DHT22;46158;52.850;6.970;2023-02-18T09:38:48;14.00;79.20
60313;DHT22;46158;52.850;6.970;2023-02-18T09:43:49;14.00;79.20
60313;DHT22;46158;52.850;6.970;2023-02-18T09:46:21;14.00;79.20
60313;DHT22;46158;52.850;6.970;2023-02-18T09:48:47;14.00;79.20
60313;DHT22;46158;52.850;6.970;2023-02-18T09:51:13;14.00;79.30
60313;DHT22;46158;52.850;6.970;2023-02-18T09:53:40;14.00;79.20
60313;DHT22;46158;52.850;6.970;2023-02-18T09:56:08;14.00;79.20
60313;DHT22;46158;52.850;6.970;2023-02-18T09:58:35;14.00;79.30
60313;DHT22;46158;52.850;6.970;2023-02-18T10:03:38;14.00;79.50
60313;DHT22;46158;52.850;6.970;2023-02-18T10:06:05;14.10;79.70
60313;DHT22;46158;52.850;6.970;2023-02-18T10:10:57;14.10;79.60
60313;DHT22;46158;52.850;6.970;2023-02-18T10:13:29;14.10;79.60
60313;DHT22;46158;52.850;6.970;2023-02-18T10:15:55;14.10;79.60
60313;DHT22;46158;52.850;6.970;2023-02-18T10:20:50;14.10;79.50
60313;DHT22;46158;52.850;6.970;2023-02-18T10:23:16;14.10;79.50
60313;DHT22;46158;52.850;6.970;2023-02-18T10:25:44;14.20;79.50
60313;DHT22;46158;52.850;6.970;2023-02-18T10:28:11;14.20;79.60
60313;DHT22;46158;52.850;6.970;2023-02-18T10:30:39;14.20;79.60
60313;DHT22;46158;52.850;6.970;2023-02-18T10:33:26;14.20;79.60
60313;DHT22;46158;52.850;6.970;2023-02-18T10:36:08;14.20;79.70
60313;DHT22;46158;52.850;6.970;2023-02-18T10:38:48;14.20;79.80
60313;DHT22;46158;52.850;6.970;2023-02-18T10:51:27;14.30;79.60
60313;DHT22;46158;52.850;6.970;2023-02-18T10:53:53;14.30;79.60
60313;DHT22;46158;52.850;6.970;2023-02-18T10:56:37;14.30;79.60
60313;DHT22;46158;52.850;6.970;2023-02-18T10:59:12;14.30;79.60
60313;DHT22;46158;52.850;6.970;2023-02-18T11:01:38;14.30;79.40
60313;DHT22;46158;52.850;6.970;2023-02-18T11:04:11;14.30;79.40
60313;DHT22;46158;52.850;6.970;2023-02-18T11:06:40;14.30;79.40
60313;DHT22;46158;52.850;6.970;2023-02-18T11:09:06;14.30;79.40
60313;DHT22;46158;52.850;6.970;2023-02-18T11:11:45;14.30;79.40
60313;DHT22;46158;52.850;6.970;2023-02-18T11:14:12;14.30;79.40
60313;DHT22;46158;52.850;6.970;2023-02-18T11:16:40;14.40;79.50
60313;DHT22;46158;52.850;6.970;2023-02-18T11:21:50;14.40;79.50
60313;DHT22;46158;52.850;6.970;2023-02-18T11:24:16;14.40;79.60
60313;DHT22;46158;52.850;6.970;2023-02-18T11:26:44;14.40;79.60
60313;DHT22;46158;52.850;6.970;2023-02-18T11:29:19;14.40;79.70
60313;DHT22;46158;52.850;6.970;2023-02-18T11:31:46;14.40;79.60
60313;DHT22;46158;52.850;6.970;2023-02-18T11:34:28;14.40;79.60
60313;DHT22;46158;52.850;6.970;2023-02-18T11:36:55;14.40;79.60
60313;DHT22;46158;52.850;6.970;2023-02-18T11:39:32;14.40;79.60
60313;DHT22;46158;52.850;6.970;2023-02-18T11:42:01;14.40;79.60
60313;DHT22;46158;52.850;6.970;2023-02-18T11:44:32;14.40;79.60
60313;DHT22;46158;52.850;6.970;2023-02-18T11:49:24;14.40;79.60
60313;DHT22;46158;52.850;6.970;2023-02-18T11:51:50;14.40;79.60
60313;DHT22;46158;52.850;6.970;2023-02-18T11:57:09;14.40;79.60
60313;DHT22;46158;52.850;6.970;2023-02-18T11:59:36;14.40;79.60
60313;DHT22;46158;52.850;6.970;2023-02-18T12:02:10;14.40;79.70
60313;DHT22;46158;52.850;6.970;2023-02-18T12:04:42;14.50;79.80
60313;DHT22;46158;52.850;6.970;2023-02-18T12:09:40;14.40;79.80
60313;DHT22;46158;52.850;6.970;2023-02-18T12:12:14;14.50;79.80
60313;DHT22;46158;52.850;6.970;2023-02-18T12:14:40;14.50;79.80
60313;DHT22;46158;52.850;6.970;2023-02-18T12:20:06;14.50;79.80
60313;DHT22;46158;52.850;6.970;2023-02-18T12:25:50;14.50;79.80
60313;DHT22;46158;52.850;6.970;2023-02-18T12:41:22;14.60;79.80
60313;DHT22;46158;52.850;6.970;2023-02-18T12:46:29;14.70;79.90
60313;DHT22;46158;52.850;6.970;2023-02-18T12:53:55;14.70;79.90
60313;DHT22;46158;52.850;6.970;2023-02-18T12:59:12;14.70;79.90
60313;DHT22;46158;52.850;6.970;2023-02-18T13:09:30;14.70;79.90
60313;DHT22;46158;52.850;6.970;2023-02-18T13:12:20;14.80;79.90
60313;DHT22;46158;52.850;6.970;2023-02-18T13:14:52;14.80;80.60
60313;DHT22;46158;52.850;6.970;2023-02-18T13:17:22;14.80;79.90
60313;DHT22;46158;52.850;6.970;2023-02-18T13:19:51;14.80;79.90
60313;DHT22;46158;52.850;6.970;2023-02-18T13:22:20;14.80;79.90
60313;DHT22;46158;52.850;6.970;2023-02-18T13:24:47;14.80;79.90
60313;DHT22;46158;52.850;6.970;2023-02-18T13:39:50;14.80;79.70
60313;DHT22;46158;52.850;6.970;2023-02-18T13:42:23;14.80;79.70
60313;DHT22;46158;52.850;6.970;2023-02-18T13:47:40;14.70;79.60
60313;DHT22;46158;52.850;6.970;2023-02-18T13:50:13;14.80;79.60
60313;DHT22;46158;52.850;6.970;2023-02-18T13:52:40;14.80;79.60
60313;DHT22;46158;52.850;6.970;2023-02-18T13:55:16;14.80;79.60
60313;DHT22;46158;52.850;6.970;2023-02-18T13:57:44;14.80;79.60
60313;DHT22;46158;52.850;6.970;2023-02-18T14:00:54;14.80;79.60
60313;DHT22;46158;52.850;6.970;2023-02-18T14:03:01;14.80;79.60
60313;DHT22;46158;52.850;6.970;2023-02-18T14:05:37;14.80;79.60
60313;DHT22;46158;52.850;6.970;2023-02-18T14:16:06;14.80;79.50
60313;DHT22;46158;52.850;6.970;2023-02-18T14:18:36;14.80;79.50
60313;DHT22;46158;52.850;6.970;2023-02-18T14:21:19;14.80;79.50
60313;DHT22;46158;52.850;6.970;2023-02-18T14:23:54;14.80;79.50
60313;DHT22;46158;52.850;6.970;2023-02-18T14:26:22;14.80;79.50
60313;DHT22;46158;52.850;6.970;2023-02-18T14:31:50;14.90;79.50
60313;DHT22;46158;52.850;6.970;2023-02-18T14:49:57;14.90;79.60
60313;DHT22;46158;52.850;6.970;2023-02-18T14:54:55;14.90;79.50
60313;DHT22;46158;52.850;6.970;2023-02-18T14:57:25;15.00;79.50
60313;DHT22;46158;52.850;6.970;2023-02-18T14:59:56;15.00;79.30
60313;DHT22;46158;52.850;6.970;2023-02-18T15:02:24;14.90;78.80
60313;DHT22;46158;52.850;6.970;2023-02-18T15:05:04;14.90;78.40
60313;DHT22;46158;52.850;6.970;2023-02-18T15:07:35;14.90;78.60
60313;DHT22;46158;52.850;6.970;2023-02-18T15:10:04;14.90;78.80
60313;DHT22;46158;52.850;6.970;2023-02-18T15:12:29;14.90;78.90
60313;DHT22;46158;52.850;6.970;2023-02-18T15:14:56;14.90;79.00
60313;DHT22;46158;52.850;6.970;2023-02-18T15:17:24;14.80;79.00
60313;DHT22;46158;52.850;6.970;2023-02-18T15:19:55;14.90;79.00
60313;DHT22;46158;52.850;6.970;2023-02-18T15:22:22;14.90;79.10
60313;DHT22;46158;52.850;6.970;2023-02-18T15:24:48;14.90;79.20
60313;DHT22;46158;52.850;6.970;2023-02-18T15:27:18;14.90;79.20
60313;DHT22;46158;52.850;6.970;2023-02-18T15:29:47;14.90;78.80
60313;DHT22;46158;52.850;6.970;2023-02-18T15:32:15;14.80;79.10
60313;DHT22;46158;52.850;6.970;2023-02-18T15:34:41;14.90;79.20
60313;DHT22;46158;52.850;6.970;2023-02-18T15:37:09;14.90;79.30
60313;DHT22;46158;52.850;6.970;2023-02-18T15:39:35;14.90;79.40
60313;DHT22;46158;52.850;6.970;2023-02-18T15:44:34;14.90;79.50
60313;DHT22;46158;52.850;6.970;2023-02-18T15:47:01;14.90;79.50
60313;DHT22;46158;52.850;6.970;2023-02-18T15:49:28;15.00;79.60
60313;DHT22;46158;52.850;6.970;2023-02-18T15:51:55;15.00;79.50
60313;DHT22;46158;52.850;6.970;2023-02-18T15:54:22;15.00;79.50
60313;DHT22;46158;52.850;6.970;2023-02-18T15:56:48;15.00;79.50
60313;DHT22;46158;52.850;6.970;2023-02-18T15:59:34;14.90;79.50
60313;DHT22;46158;52.850;6.970;2023-02-18T16:04:35;15.00;79.50
60313;DHT22;46158;52.850;6.970;2023-02-18T16:07:16;15.00;79.50
60313;DHT22;46158;52.850;6.970;2023-02-18T16:09:43;15.00;79.50
60313;DHT22;46158;52.850;6.970;2023-02-18T16:15:01;15.00;79.50
60313;DHT22;46158;52.850;6.970;2023-02-18T16:17:27;15.00;78.50
60313;DHT22;46158;52.850;6.970;2023-02-18T16:19:54;15.00;78.10
60313;DHT22;46158;52.850;6.970;2023-02-18T16:24:54;15.00;78.50
60313;DHT22;46158;52.850;6.970;2023-02-18T16:27:20;15.00;78.90
60313;DHT22;46158;52.850;6.970;2023-02-18T16:29:49;14.90;79.20
60313;DHT22;46158;52.850;6.970;2023-02-18T16:32:14;15.00;79.50
60313;DHT22;46158;52.850;6.970;2023-02-18T16:34:40;15.00;79.50
60313;DHT22;46158;52.850;6.970;2023-02-18T16:37:05;15.00;79.30
60313;DHT22;46158;52.850;6.970;2023-02-18T16:39:50;15.00;79.20
60313;DHT22;46158;52.850;6.970;2023-02-18T16:42:19;15.00;79.10
60313;DHT22;46158;52.850;6.970;2023-02-18T16:44:48;15.00;79.20
60313;DHT22;46158;52.850;6.970;2023-02-18T16:47:15;15.00;79.30
60313;DHT22;46158;52.850;6.970;2023-02-18T16:49:42;15.00;79.60
60313;DHT22;46158;52.850;6.970;2023-02-18T16:52:09;15.00;79.60
60313;DHT22;46158;52.850;6.970;2023-02-18T16:54:35;15.00;79.70
60313;DHT22;46158;52.850;6.970;2023-02-18T16:57:00;15.00;79.90
60313;DHT22;46158;52.850;6.970;2023-02-18T16:59:26;15.00;80.00
60313;DHT22;46158;52.850;6.970;2023-02-18T17:01:51;15.00;79.90
60313;DHT22;46158;52.850;6.970;2023-02-18T17:04:17;15.00;79.90
60313;DHT22;46158;52.850;6.970;2023-02-18T17:06:44;15.00;79.80
60313;DHT22;46158;52.850;6.970;2023-02-18T17:09:13;15.00;79.80
60313;DHT22;46158;52.850;6.970;2023-02-18T17:11:41;15.00;79.70
60313;DHT22;46158;52.850;6.970;2023-02-18T17:14:08;15.00;79.70
60313;DHT22;46158;52.850;6.970;2023-02-18T17:16:35;15.00;79.60
60313;DHT22;46158;52.850;6.970;2023-02-18T17:19:00;15.00;79.60
60313;DHT22;46158;52.850;6.970;2023-02-18T17:21:26;15.00;79.50
60313;DHT22;46158;52.850;6.970;2023-02-18T17:23:51;15.00;79.50
60313;DHT22;46158;52.850;6.970;2023-02-18T17:26:24;15.10;79.40
60313;DHT22;46158;52.850;6.970;2023-02-18T17:28:51;15.00;79.30
60313;DHT22;46158;52.850;6.970;2023-02-18T17:31:21;15.10;79.50
60313;DHT22;46158;52.850;6.970;2023-02-18T17:33:48;15.00;79.40
60313;DHT22;46158;52.850;6.970;2023-02-18T17:36:14;15.10;79.50
60313;DHT22;46158;52.850;6.970;2023-02-18T17:38:39;15.10;79.50
60313;DHT22;46158;52.850;6.970;2023-02-18T17:41:05;15.00;79.60
60313;DHT22;46158;52.850;6.970;2023-02-18T17:43:31;15.10;79.70
60313;DHT22;46158;52.850;6.970;2023-02-18T17:45:57;15.00;79.60
60313;DHT22;46158;52.850;6.970;2023-02-18T17:48:23;15.00;79.50
60313;DHT22;46158;52.850;6.970;2023-02-18T17:50:49;15.10;79.50
60313;DHT22;46158;52.850;6.970;2023-02-18T17:53:15;15.00;79.50
60313;DHT22;46158;52.850;6.970;2023-02-18T17:55:42;15.10;79.50
60313;DHT22;46158;52.850;6.970;2023-02-18T17:58:08;15.00;79.50
60313;DHT22;46158;52.850;6.970;2023-02-18T18:00:35;15.00;79.40
60313;DHT22;46158;52.850;6.970;2023-02-18T18:03:01;15.00;79.50
60313;DHT22;46158;52.850;6.970;2023-02-18T18:05:28;15.10;79.40
60313;DHT22;46158;52.850;6.970;2023-02-18T18:07:54;15.10;79.40
60313;DHT22;46158;52.850;6.970;2023-02-18T18:10:21;15.10;79.40
60313;DHT22;46158;52.850;6.970;2023-02-18T18:12:47;15.10;79.50
60313;DHT22;46158;52.850;6.970;2023-02-18T18:15:21;15.10;79.50
60313;DHT22;46158;52.850;6.970;2023-02-18T18:17:46;15.10;79.50